Time;durP1;ratioP1;P1;durP2;ratioP2;P2;SDS_P1;SDS_P2;PMS_P1;PMS_P2;Temp;Humidity;BMP_temperature;BMP_pressure;BME280_temperature;BME280_humidity;BME280_pressure;Samples;Min_cycle;Max_cycle;Signal;HPM_P1;HPM_P2
2021/06/12 00:01:28;;;;;;;;;20.00;19.60;;;;;22.32;50.33;98744.75;6260398;27;126179;-62
2021/06/12 00:04:33;;;;;;;;;20.50;19.00;;;;;22.32;50.63;98752.16;6256285;27;125394;-62
2021/06/12 00:07:35;;;;;;;;;18.00;17.00;;;;;22.20;50.50;98744.41;6258054;27;128186;-62
2021/06/12 00:10:39;;;;;;;;;17.00;16.00;;;;;22.09;50.76;98734.69;6260774;27;125986;-62
2021/06/12 00:13:42;;;;;;;;;18.00;17.60;;;;;22.11;50.58;98735.22;6259826;27;125490;-62
2021/06/12 00:16:46;;;;;;;;;17.75;17.25;;;;;22.07;50.92;98736.13;6258713;27;125910;-62
2021/06/12 00:19:49;;;;;;;;;19.00;18.40;;;;;22.04;50.56;98740.25;6256673;27;126947;-62
2021/06/12 00:22:52;;;;;;;;;17.40;17.40;;;;;22.08;50.57;98732.28;6260099;27;126333;-62
2021/06/12 00:25:55;;;;;;;;;18.60;18.00;;;;;22.05;50.41;98736.41;6258852;27;126393;-62
2021/06/12 00:28:57;;;;;;;;;19.60;18.60;;;;;22.02;50.68;98734.28;6258861;27;126419;-62
2021/06/12 00:32:01;;;;;;;;;18.40;18.00;;;;;22.08;50.35;98735.84;6258311;27;123441;-62
2021/06/12 00:35:06;;;;;;;;;17.25;16.00;;;;;21.99;50.38;98723.91;6256842;27;125999;-62
2021/06/12 00:38:09;;;;;;;;;18.00;17.80;;;;;21.95;50.13;98714.63;6260149;27;125814;-62
2021/06/12 00:41:12;;;;;;;;;18.00;17.00;;;;;22.02;50.49;98734.28;6260036;27;125250;-62
2021/06/12 00:44:15;;;;;;;;;18.20;18.00;;;;;21.95;50.47;98733.84;6251887;27;126226;-62
2021/06/12 00:47:19;;;;;;;;;18.00;17.00;;;;;21.93;50.58;98734.16;6254073;27;124418;-62
2021/06/12 00:50:23;;;;;;;;;19.00;18.00;;;;;21.90;50.65;98731.13;6258410;27;126413;-62
2021/06/12 00:53:37;;;;;;;;;18.50;17.00;;;;;21.91;50.57;98730.84;6258244;27;126359;-62
2021/06/12 00:56:42;;;;;;;;;19.60;18.60;;;;;21.88;50.95;98734.19;6257929;27;124528;-62
2021/06/12 00:59:45;;;;;;;;;19.00;18.00;;;;;21.84;50.85;98732.34;6258713;27;124636;-62
2021/06/12 01:02:50;;;;;;;;;20.00;19.00;;;;;21.81;50.65;98725.53;6259950;27;126142;-62
2021/06/12 01:05:53;;;;;;;;;20.00;18.00;;;;;21.80;50.85;98728.56;6263416;27;124179;-62
2021/06/12 01:08:55;;;;;;;;;18.40;18.00;;;;;21.74;50.69;98729.78;6262133;27;124817;-62
2021/06/12 01:12:07;;;;;;;;;22.00;20.50;;;;;21.70;50.80;98735.00;6264270;27;126098;-62
2021/06/12 01:15:11;;;;;;;;;18.60;18.00;;;;;21.64;51.44;98741.72;6262825;27;126240;-62
2021/06/12 01:18:18;;;;;;;;;20.00;19.40;;;;;21.59;51.35;98733.56;6263769;27;126763;-62
2021/06/12 01:21:30;;;;;;;;;21.60;20.20;;;;;21.61;51.25;98732.13;6263449;27;125969;-62
2021/06/12 01:24:48;;;;;;;;;22.00;20.60;;;;;21.52;51.73;98733.91;6263973;27;126579;-62
2021/06/12 01:28:16;;;;;;;;;21.00;20.00;;;;;21.44;52.28;98729.13;6263273;27;125756;-62
2021/06/12 01:31:23;;;;;;;;;24.00;22.00;;;;;21.29;52.37;98712.88;6263349;27;125774;-62
2021/06/12 01:34:28;;;;;;;;;23.00;21.00;;;;;21.38;52.54;98729.47;6263326;27;125112;-62
2021/06/12 01:37:35;;;;;;;;;24.00;21.00;;;;;21.34;52.44;98732.00;6240079;27;124220;-62
2021/06/12 01:40:42;;;;;;;;;21.00;20.00;;;;;21.34;52.53;98731.19;6262777;27;125951;-62
2021/06/12 01:43:46;;;;;;;;;24.00;21.00;;;;;21.29;52.85;98726.59;6263450;27;124301;-62
2021/06/12 01:46:53;;;;;;;;;22.00;21.00;;;;;21.27;53.09;98720.56;6261715;27;126271;-62
2021/06/12 01:49:56;;;;;;;;;22.00;21.00;;;;;21.26;52.73;98723.63;6262097;27;124981;-62
2021/06/12 01:53:00;;;;;;;;;23.00;21.00;;;;;21.07;53.08;98701.63;6262573;27;125989;-62
2021/06/12 01:56:06;;;;;;;;;20.00;19.00;;;;;21.21;52.71;98720.94;6262947;27;126740;-62
2021/06/12 01:59:10;;;;;;;;;20.00;19.00;;;;;21.20;52.50;98713.81;6263326;27;124758;-62
2021/06/12 02:02:16;;;;;;;;;19.80;19.00;;;;;21.22;52.54;98712.41;6262906;27;124974;-62
2021/06/12 02:05:22;;;;;;;;;20.80;20.00;;;;;21.21;52.14;98713.50;6262590;27;125804;-62
2021/06/12 02:08:25;;;;;;;;;21.00;20.00;;;;;21.25;52.35;98716.50;6259389;27;124789;-62
2021/06/12 02:11:28;;;;;;;;;20.40;19.40;;;;;21.17;52.57;98712.47;6262361;27;126816;-62
2021/06/12 02:14:33;;;;;;;;;22.20;21.20;;;;;21.12;52.84;98721.56;6261601;27;126174;-62
2021/06/12 02:17:38;;;;;;;;;19.60;19.60;;;;;21.18;52.42;98719.59;6262033;27;125982;-62
2021/06/12 02:20:43;;;;;;;;;23.50;21.50;;;;;21.17;52.38;98720.69;6263039;27;125747;-62
2021/06/12 02:23:48;;;;;;;;;20.50;18.00;;;;;20.95;52.29;98687.53;6261534;27;125784;-62
2021/06/12 02:26:53;;;;;;;;;19.60;19.00;;;;;21.07;52.55;98712.56;6260168;27;124844;-62
2021/06/12 02:29:58;;;;;;;;;23.00;22.00;;;;;21.06;52.56;98722.72;6260227;27;127131;-62
2021/06/12 02:33:08;;;;;;;;;23.40;22.00;;;;;21.00;53.07;98721.19;6259972;27;124801;-62
2021/06/12 02:36:10;;;;;;;;;23.00;22.60;;;;;21.08;52.69;98722.44;6259953;27;125160;-62
2021/06/12 02:39:13;;;;;;;;;21.00;21.00;;;;;21.08;52.65;98723.25;6260752;27;125175;-62
2021/06/12 02:42:16;;;;;;;;;23.00;22.00;;;;;21.04;52.80;98713.19;6260778;27;124842;-62
2021/06/12 02:45:19;;;;;;;;;23.60;22.60;;;;;21.09;52.82;98715.84;6260987;27;127199;-62
2021/06/12 02:48:28;;;;;;;;;23.00;21.00;;;;;20.97;53.00;98718.19;6262753;27;123853;-62
2021/06/12 02:51:34;;;;;;;;;25.00;22.80;;;;;20.99;52.85;98718.72;6261221;27;125896;-62
2021/06/12 02:54:40;;;;;;;;;23.40;23.00;;;;;20.99;52.50;98708.56;6261818;27;126141;-62
2021/06/12 02:57:45;;;;;;;;;25.00;23.00;;;;;21.03;52.62;98703.31;6260873;27;126560;-62
2021/06/12 03:00:49;;;;;;;;;22.60;21.20;;;;;20.94;53.13;98711.38;6260055;27;125776;-62
2021/06/12 03:03:56;;;;;;;;;24.00;22.00;;;;;20.91;52.87;98709.25;6260801;27;126012;-62
2021/06/12 03:06:59;;;;;;;;;20.50;20.50;;;;;20.86;52.75;98705.75;6253488;27;123196;-62
2021/06/12 03:10:03;;;;;;;;;23.50;21.50;;;;;20.93;53.03;98708.94;6259025;27;123905;-62
2021/06/12 03:13:11;;;;;;;;;23.00;21.20;;;;;20.92;52.71;98707.28;6260833;27;125753;-62
2021/06/12 03:16:17;;;;;;;;;23.00;23.00;;;;;20.91;52.97;98709.25;6248087;27;125349;-62
2021/06/12 03:19:25;;;;;;;;;24.00;22.00;;;;;20.90;52.80;98713.09;6258969;27;125077;-62
2021/06/12 03:22:30;;;;;;;;;24.60;23.00;;;;;20.93;52.67;98720.72;6258628;27;126638;-62
2021/06/12 03:25:33;;;;;;;;;25.00;22.25;;;;;20.93;53.17;98717.97;6259906;27;125988;-62
2021/06/12 03:28:36;;;;;;;;;23.00;22.00;;;;;21.00;52.73;98715.69;6245076;27;124754;-62
2021/06/12 03:31:39;;;;;;;;;22.00;21.00;;;;;21.08;52.81;98722.44;6260204;27;124903;-62
2021/06/12 03:34:45;;;;;;;;;21.00;20.00;;;;;21.08;52.33;98717.78;6256983;27;125557;-62
2021/06/12 03:37:48;;;;;;;;;22.00;20.60;;;;;21.17;52.32;98723.44;6258234;27;125947;-62
2021/06/12 03:40:51;;;;;;;;;21.20;20.20;;;;;21.09;52.36;98730.38;6256850;27;126115;-62
2021/06/12 03:43:54;;;;;;;;;23.75;22.75;;;;;21.11;52.64;98727.34;6257707;27;126372;-62
2021/06/12 03:46:57;;;;;;;;;23.75;22.75;;;;;21.23;52.29;98726.94;6256655;27;125198;-62
2021/06/12 03:50:04;;;;;;;;;20.75;19.75;;;;;21.25;52.14;98725.53;6242831;27;128138;-62
2021/06/12 03:53:07;;;;;;;;;23.00;21.40;;;;;21.36;52.11;98734.44;6258188;27;125934;-62
2021/06/12 03:56:11;;;;;;;;;23.00;22.00;;;;;21.39;51.91;98733.84;6256537;27;125394;-62
2021/06/12 03:59:14;;;;;;;;;21.50;20.50;;;;;21.43;51.70;98732.16;6258388;27;124660;-62
2021/06/12 04:02:17;;;;;;;;;23.00;22.00;;;;;21.50;51.11;98741.63;6260585;27;125114;-62
2021/06/12 04:05:21;;;;;;;;;23.60;22.00;;;;;21.38;51.26;98721.25;6260329;27;126414;-62
2021/06/12 04:08:24;;;;;;;;;25.00;22.25;;;;;21.58;50.98;98740.16;6259640;27;124705;-62
2021/06/12 04:11:27;;;;;;;;;24.00;22.00;;;;;21.54;51.24;98747.34;6258424;27;126815;-62
2021/06/12 04:14:29;;;;;;;;;22.00;20.60;;;;;21.52;51.35;98752.31;6259329;27;124932;-62
2021/06/12 04:17:32;;;;;;;;;24.50;24.00;;;;;21.55;51.32;98749.00;6258073;27;124056;-62
2021/06/12 04:20:38;;;;;;;;;26.40;24.00;;;;;21.57;51.19;98744.81;6259307;27;126255;-62
2021/06/12 04:23:41;;;;;;;;;24.40;22.40;;;;;21.57;51.42;98753.06;6259743;27;125797;-62
2021/06/12 04:26:44;;;;;;;;;22.25;21.00;;;;;21.65;51.55;98746.06;6258522;27;126163;-62
2021/06/12 04:29:46;;;;;;;;;22.25;21.25;;;;;21.73;51.02;98745.41;6259328;27;127181;-62
2021/06/12 04:32:51;;;;;;;;;22.50;21.25;;;;;21.81;51.12;98736.50;6257156;27;125929;-62
2021/06/12 04:35:56;;;;;;;;;23.60;23.00;;;;;21.86;51.12;98749.31;6258868;27;125487;-62
2021/06/12 04:38:59;;;;;;;;;23.80;22.80;;;;;21.89;51.33;98746.78;6260288;27;124404;-62
2021/06/12 04:42:01;;;;;;;;;24.00;22.00;;;;;21.91;51.28;98747.31;6263649;27;126001;-62
2021/06/12 04:45:06;;;;;;;;;26.80;23.80;;;;;21.87;51.12;98726.25;6263844;27;124851;-62
2021/06/12 04:48:09;;;;;;;;;23.60;23.00;;;;;21.99;50.74;98745.88;6263428;27;125792;-62
2021/06/12 04:51:14;;;;;;;;;24.25;21.25;;;;;22.06;50.64;98743.53;6262016;27;124654;-62
2021/06/12 04:54:16;;;;;;;;;23.00;21.00;;;;;22.01;50.70;98741.69;6263733;27;125821;-62
2021/06/12 04:57:19;;;;;;;;;22.00;21.00;;;;;22.18;50.85;98746.66;6262413;27;124949;-62
2021/06/12 05:00:23;;;;;;;;;24.00;22.00;;;;;22.19;50.71;98745.50;6263339;27;126475;-62
2021/06/12 05:03:26;;;;;;;;;23.80;22.80;;;;;22.24;50.44;98745.41;6263294;27;125964;-62
2021/06/12 05:06:30;;;;;;;;;24.00;22.80;;;;;22.43;50.12;98737.16;6263225;27;126196;-62
2021/06/12 05:09:33;;;;;;;;;23.00;22.00;;;;;22.52;49.80;98746.31;6263032;27;124557;-62
2021/06/12 05:12:36;;;;;;;;;22.40;21.40;;;;;22.61;49.97;98740.91;6264001;27;125839;-62
2021/06/12 05:15:39;;;;;;;;;24.40;21.40;;;;;22.48;49.88;98712.28;6263058;27;126467;-62
2021/06/12 05:18:45;;;;;;;;;23.00;20.00;;;;;22.75;49.80;98736.28;6263082;27;126149;-62
2021/06/12 05:21:49;;;;;;;;;23.80;22.00;;;;;22.93;49.59;98734.53;6258142;27;126471;-62
2021/06/12 05:24:52;;;;;;;;;24.60;22.60;;;;;23.06;48.94;98742.00;6261630;27;124112;-62
2021/06/12 05:27:55;;;;;;;;;24.50;23.50;;;;;23.08;49.06;98732.28;6249337;27;125947;-62
2021/06/12 05:30:58;;;;;;;;;25.00;24.00;;;;;23.16;48.46;98739.03;6261369;27;124965;-62
2021/06/12 05:34:01;;;;;;;;;26.40;24.40;;;;;23.28;48.80;98728.28;6244369;27;124994;-62
2021/06/12 05:37:05;;;;;;;;;25.00;23.00;;;;;23.42;48.33;98729.06;6241366;27;123754;-62
2021/06/12 05:40:10;;;;;;;;;25.75;25.00;;;;;23.42;48.38;98728.25;6239723;27;124870;-62
2021/06/12 05:43:13;;;;;;;;;22.00;20.00;;;;;23.56;47.92;98731.81;6234791;27;124235;-62
2021/06/12 05:46:16;;;;;;;;;23.00;21.20;;;;;23.66;47.41;98726.91;6258185;27;124976;-62
2021/06/12 05:49:20;;;;;;;;;23.00;21.50;;;;;23.80;47.10;98721.34;6259199;27;124874;-62
2021/06/12 05:52:24;;;;;;;;;25.00;22.00;;;;;23.82;47.30;98721.84;6259461;27;126479;-62
2021/06/12 05:55:27;;;;;;;;;26.33;24.00;;;;;24.05;47.12;98719.91;6260052;27;125709;-62
2021/06/12 05:58:30;;;;;;;;;22.00;20.00;;;;;24.14;46.50;98718.84;6258092;27;127959;-62
2021/06/12 06:01:33;;;;;;;;;24.40;21.00;;;;;24.30;46.28;98726.75;6260999;27;126141;-62
2021/06/12 06:04:36;;;;;;;;;21.40;20.00;;;;;24.44;46.40;98730.22;6261750;27;125156;-62
2021/06/12 06:07:40;;;;;;;;;23.00;21.00;;;;;24.57;45.82;98715.56;6260946;27;126097;-62
2021/06/12 06:10:43;;;;;;;;;20.25;19.75;;;;;24.69;45.33;98720.44;6250680;27;124608;-62
2021/06/12 06:13:46;;;;;;;;;20.80;18.40;;;;;24.84;44.67;98712.56;6260074;27;125317;-62
2021/06/12 06:16:49;;;;;;;;;20.80;20.80;;;;;24.92;43.66;98713.78;6261146;27;125143;-62
2021/06/12 06:19:52;;;;;;;;;19.25;18.00;;;;;24.98;43.88;98712.47;6261605;27;124695;-62
2021/06/12 06:22:56;;;;;;;;;17.00;17.00;;;;;25.13;43.62;98719.50;6260151;27;125074;-62
2021/06/12 06:25:59;;;;;;;;;19.75;17.75;;;;;25.03;44.04;98704.06;6257857;27;126235;-62
2021/06/12 06:29:02;;;;;;;;;20.20;18.00;;;;;25.28;43.17;98719.03;6244960;27;123369;-62
2021/06/12 06:32:06;;;;;;;;;22.00;18.00;;;;;25.40;43.00;98709.00;6243185;27;125316;-62
2021/06/12 06:35:12;;;;;;;;;19.40;18.00;;;;;25.51;42.82;98711.47;6253375;27;126090;-62
2021/06/12 06:38:16;;;;;;;;;19.00;17.60;;;;;25.59;42.58;98710.66;6252871;27;125203;-62
2021/06/12 06:41:19;;;;;;;;;19.40;18.40;;;;;25.66;42.78;98716.50;6257118;27;125778;-62
2021/06/12 06:44:22;;;;;;;;;19.00;19.00;;;;;25.66;42.38;98728.34;6258169;27;126281;-62
2021/06/12 06:47:25;;;;;;;;;19.60;18.00;;;;;25.87;42.53;98728.53;6258872;27;125026;-62
2021/06/12 06:50:28;;;;;;;;;18.60;18.00;;;;;25.91;40.96;98721.22;6258699;27;125091;-62
2021/06/12 06:53:33;;;;;;;;;18.60;17.00;;;;;25.95;41.01;98718.63;6258203;27;125018;-62
2021/06/12 06:56:36;;;;;;;;;21.00;19.00;;;;;26.05;41.05;98723.78;6253722;27;125070;-62
2021/06/12 06:59:38;;;;;;;;;18.60;17.60;;;;;26.10;40.40;98718.91;6259013;27;125741;-62
2021/06/12 07:02:41;;;;;;;;;18.00;17.00;;;;;26.11;41.04;98709.50;6259112;27;126009;-62
2021/06/12 07:05:44;;;;;;;;;18.20;17.20;;;;;26.18;40.56;98711.75;6258981;27;126242;-62
2021/06/12 07:08:48;;;;;;;;;17.20;16.00;;;;;26.12;40.11;98702.00;6258694;27;124897;-62
2021/06/12 07:11:51;;;;;;;;;18.00;17.00;;;;;26.35;39.97;98705.41;6248582;27;124581;-62
2021/06/12 07:14:54;;;;;;;;;17.40;16.00;;;;;26.52;39.52;98695.13;6257826;27;126531;-62
2021/06/12 07:17:56;;;;;;;;;16.00;15.00;;;;;26.72;39.22;98699.09;6258286;27;126179;-62
2021/06/12 07:20:59;;;;;;;;;17.40;17.00;;;;;26.79;38.44;98699.38;6259072;27;126503;-62
2021/06/12 07:24:04;;;;;;;;;15.00;14.00;;;;;26.97;38.69;98700.97;6248673;27;126348;-62
2021/06/12 07:27:08;;;;;;;;;16.00;14.40;;;;;27.06;38.46;98703.69;6258653;27;125740;-62
2021/06/12 07:30:12;;;;;;;;;13.60;12.60;;;;;27.17;38.19;98700.16;6258699;27;126364;-62
2021/06/12 07:33:15;;;;;;;;;13.00;12.00;;;;;27.30;37.50;98701.09;6258890;27;124042;-62
2021/06/12 07:36:20;;;;;;;;;15.00;14.00;;;;;27.37;37.92;98703.28;6258501;27;124760;-62
2021/06/12 07:39:26;;;;;;;;;14.00;13.00;;;;;27.49;37.30;98698.69;6258567;27;126482;-62
2021/06/12 07:42:29;;;;;;;;;14.40;14.00;;;;;27.70;36.88;98697.88;6256808;27;124958;-62
2021/06/12 07:45:36;;;;;;;;;16.40;16.00;;;;;27.78;36.59;98697.00;6258707;27;126096;-62
2021/06/12 07:48:39;;;;;;;;;15.00;13.60;;;;;28.00;36.71;98696.63;6258112;27;125290;-62
2021/06/12 07:51:43;;;;;;;;;16.00;15.00;;;;;28.17;35.44;98693.72;6258600;27;125379;-62
2021/06/12 07:54:47;;;;;;;;;15.00;14.00;;;;;28.35;35.05;98697.09;6252042;27;124894;-62
2021/06/12 07:57:50;;;;;;;;;15.50;15.50;;;;;28.56;35.19;98689.50;6240061;27;125433;-62
2021/06/12 08:00:53;;;;;;;;;13.00;12.40;;;;;28.72;35.39;98682.16;6242277;27;126302;-62
2021/06/12 08:03:56;;;;;;;;;14.00;13.00;;;;;29.00;35.09;98687.81;6243045;27;124263;-63
2021/06/12 08:06:59;;;;;;;;;11.00;11.00;;;;;29.16;33.73;98691.53;6253830;27;126185;-62
2021/06/12 08:10:04;;;;;;;;;9.60;9.60;;;;;29.43;33.53;98691.97;6261201;27;126157;-62
2021/06/12 08:13:07;;;;;;;;;11.40;10.00;;;;;29.72;32.12;98694.41;6243653;27;125952;-62
2021/06/12 08:16:09;;;;;;;;;11.60;11.00;;;;;29.81;31.99;98700.63;6258549;27;125987;-62
2021/06/12 08:19:12;;;;;;;;;10.00;10.00;;;;;29.84;32.11;98694.38;6259517;27;126071;-62
2021/06/12 08:22:15;;;;;;;;;8.60;8.00;;;;;29.94;31.73;98699.47;6257739;27;126327;-62
2021/06/12 08:25:19;;;;;;;;;9.25;8.50;;;;;30.12;30.17;98692.44;6259719;27;126189;-62
2021/06/12 08:28:22;;;;;;;;;10.00;9.40;;;;;30.29;30.23;98682.16;6259163;27;125410;-62
2021/06/12 08:31:25;;;;;;;;;8.00;8.00;;;;;30.46;30.20;98688.22;6259547;27;127633;-62
2021/06/12 08:34:27;;;;;;;;;9.60;8.40;;;;;30.50;29.74;98688.28;6258826;27;126757;-62
2021/06/12 08:37:30;;;;;;;;;7.40;7.40;;;;;30.59;30.36;98666.69;6259418;27;127064;-62
2021/06/12 08:40:35;;;;;;;;;9.00;8.00;;;;;30.79;29.21;98690.63;6259478;27;126133;-62
2021/06/12 08:43:37;;;;;;;;;11.00;9.40;;;;;30.73;29.26;98669.84;6257912;27;123893;-62
2021/06/12 08:46:57;;;;;;;;;8.00;8.00;;;;;30.89;28.99;98683.72;6247706;27;124957;-62
2021/06/12 08:50:00;;;;;;;;;9.00;9.00;;;;;30.91;29.13;98684.97;6259732;27;124848;-62
2021/06/12 08:53:03;;;;;;;;;8.67;8.67;;;;;31.13;29.91;98680.75;6258717;27;126281;-62
2021/06/12 08:56:17;;;;;;;;;7.20;7.00;;;;;31.28;29.55;98674.34;6250676;27;124629;-62
2021/06/12 08:59:20;;;;;;;;;8.00;7.00;;;;;31.50;28.95;98683.97;6258852;27;126125;-62
2021/06/12 09:02:23;;;;;;;;;8.60;7.60;;;;;31.67;28.86;98686.34;6257510;27;124875;-62
2021/06/12 09:05:25;;;;;;;;;9.20;9.00;;;;;31.82;29.65;98670.75;6258876;27;126853;-62
2021/06/12 09:08:30;;;;;;;;;10.25;9.75;;;;;32.09;29.62;98666.09;6257205;27;125208;-62
2021/06/12 09:11:35;;;;;;;;;9.00;9.00;;;;;32.30;28.71;98669.34;6258497;27;126240;-63
2021/06/12 09:14:38;;;;;;;;;8.00;8.00;;;;;32.15;28.19;98671.06;6256416;27;125842;-63
2021/06/12 09:17:43;;;;;;;;;9.60;9.00;;;;;31.85;28.78;98655.28;6258145;27;126511;-63
2021/06/12 09:20:47;;;;;;;;;9.00;9.00;;;;;31.79;29.17;98654.75;6258501;27;125723;-62
2021/06/12 09:23:52;;;;;;;;;10.25;10.00;;;;;32.13;29.61;98647.47;6249990;27;124927;-62
2021/06/12 09:26:58;;;;;;;;;10.40;10.00;;;;;32.21;28.00;98647.22;6249297;27;126415;-63
2021/06/12 09:30:04;;;;;;;;;11.40;10.60;;;;;32.02;28.79;98646.44;6262856;27;124887;-63
2021/06/12 09:33:08;;;;;;;;;8.00;8.00;;;;;31.94;28.49;98642.72;6262013;27;125788;-62
2021/06/12 09:36:12;;;;;;;;;7.25;7.25;;;;;31.89;28.81;98645.81;6261009;27;124907;-62
2021/06/12 09:39:16;;;;;;;;;11.00;11.00;;;;;32.14;29.29;98646.31;6262542;27;124828;-63
2021/06/12 09:42:35;;;;;;;;;8.00;7.00;;;;;32.09;28.58;98647.41;6263037;27;127056;-63
2021/06/12 09:45:38;;;;;;;;;7.40;7.00;;;;;31.93;28.41;98638.31;6262314;27;126036;-63
2021/06/12 09:48:53;;;;;;;;;9.00;8.00;;;;;32.04;28.18;98638.53;6262692;27;126930;-62
2021/06/12 09:52:05;;;;;;;;;7.33;7.00;;;;;32.09;28.46;98636.25;6257816;27;126087;-62
2021/06/12 09:55:08;;;;;;;;;7.00;7.00;;;;;32.24;28.25;98632.56;6260107;27;126389;-62
2021/06/12 09:58:14;;;;;;;;;8.00;8.00;;;;;32.42;27.65;98635.66;6253343;27;126405;-62
2021/06/12 10:01:19;;;;;;;;;8.00;8.00;;;;;32.50;28.54;98631.81;6257063;27;125648;-62
2021/06/12 10:04:21;;;;;;;;;8.00;7.00;;;;;32.75;27.50;98628.63;6261767;27;124774;-62
2021/06/12 10:07:24;;;;;;;;;7.00;7.00;;;;;32.60;27.05;98627.56;6257825;27;126493;-62
2021/06/12 10:10:27;;;;;;;;;7.50;7.50;;;;;32.82;27.99;98617.59;6258616;27;124864;-62
2021/06/12 10:13:32;;;;;;;;;8.00;7.40;;;;;32.95;26.93;98611.41;6262418;27;126503;-63
2021/06/12 10:16:38;;;;;;;;;8.00;8.00;;;;;33.21;26.60;98610.63;6261703;27;123651;-63
2021/06/12 10:19:43;;;;;;;;;6.00;6.00;;;;;33.63;26.46;98603.97;6261701;27;125936;-62
2021/06/12 10:22:47;;;;;;;;;7.00;7.00;;;;;33.91;25.82;98598.75;6261730;27;126701;-62
2021/06/12 10:25:52;;;;;;;;;8.00;8.00;;;;;34.11;25.19;98585.34;6261708;27;126188;-62
2021/06/12 10:28:56;;;;;;;;;6.75;6.75;;;;;34.19;24.86;98564.66;6261574;27;126149;-63
2021/06/12 10:32:00;;;;;;;;;9.00;9.00;;;;;34.32;25.68;98589.16;6260585;27;124989;-63
2021/06/12 10:35:03;;;;;;;;;9.00;8.00;;;;;34.04;24.89;98572.09;6261359;27;126440;-63
2021/06/12 10:38:13;;;;;;;;;8.00;8.00;;;;;34.05;25.16;98578.50;6258077;27;124822;-63
2021/06/12 10:41:18;;;;;;;;;8.00;8.00;;;;;34.04;26.18;98579.69;6261575;27;124289;-63
2021/06/12 10:44:27;;;;;;;;;8.00;8.00;;;;;34.12;26.53;98570.97;6260897;27;125751;-63
2021/06/12 10:47:37;;;;;;;;;8.00;8.00;;;;;34.20;25.63;98577.47;6262343;27;125906;-63
2021/06/12 10:50:44;;;;;;;;;8.60;8.00;;;;;34.04;24.24;98577.69;6251709;27;125981;-63
2021/06/12 10:54:07;;;;;;;;;7.80;7.40;;;;;34.12;24.71;98548.59;6263378;27;127631;-63
2021/06/12 10:57:17;;;;;;;;;6.00;6.00;;;;;34.15;25.01;98547.84;6251221;27;124499;-63
2021/06/12 11:00:23;;;;;;;;;9.00;8.00;;;;;34.31;25.32;98545.59;6264483;27;124960;-63
2021/06/12 11:03:42;;;;;;;;;8.00;7.50;;;;;34.32;25.35;98541.59;6260841;27;124014;-63
2021/06/12 11:06:50;;;;;;;;;8.00;7.40;;;;;34.22;25.07;98538.69;6259375;27;123985;-63
2021/06/12 11:10:08;;;;;;;;;9.00;8.00;;;;;34.12;25.57;98529.00;6261352;27;125964;-63
2021/06/12 11:13:20;;;;;;;;;7.80;7.80;;;;;33.77;25.53;98545.47;6235113;27;124989;-63
2021/06/12 11:16:24;;;;;;;;;8.00;8.00;;;;;33.57;25.63;98541.22;6260345;27;124505;-62
2021/06/12 11:19:29;;;;;;;;;8.40;8.40;;;;;33.43;25.73;98544.63;6260661;27;126152;-62
2021/06/12 11:22:35;;;;;;;;;9.00;7.40;;;;;33.32;25.78;98540.91;6260177;27;126441;-62
2021/06/12 11:25:44;;;;;;;;;9.00;9.00;;;;;33.35;25.56;98535.38;6254717;27;124624;-62
2021/06/12 11:29:07;;;;;;;;;7.00;7.00;;;;;33.32;25.51;98522.16;6257182;27;126130;-63
2021/06/12 11:32:29;;;;;;;;;6.20;6.20;;;;;33.70;25.71;98520.22;6259586;27;125036;-63
2021/06/12 11:35:51;;;;;;;;;7.00;7.00;;;;;33.86;24.75;98512.41;6257995;27;125743;-63
2021/06/12 11:38:58;;;;;;;;;11.00;10.00;;;;;33.62;24.99;98522.13;6260051;27;125589;-63
2021/06/12 11:42:00;;;;;;;;;8.00;7.80;;;;;33.83;25.76;98499.97;6260612;27;124351;-62
2021/06/12 11:45:13;;;;;;;;;8.80;7.80;;;;;33.92;24.98;98494.84;6261152;27;126225;-63
2021/06/12 11:48:19;;;;;;;;;8.00;8.00;;;;;33.67;25.13;98501.38;6260048;27;125770;-63
2021/06/12 11:51:25;;;;;;;;;9.00;9.00;;;;;33.56;25.28;98506.06;6260678;27;124680;-63
2021/06/12 11:54:31;;;;;;;;;8.00;8.00;;;;;33.48;25.71;98494.78;6260181;27;126087;-63
2021/06/12 11:57:40;;;;;;;;;10.00;9.25;;;;;33.04;26.27;98461.13;6259566;27;124670;-63
2021/06/12 12:00:48;;;;;;;;;10.40;9.00;;;;;32.94;26.75;98495.31;6260458;27;126709;-63
2021/06/12 12:03:53;;;;;;;;;10.00;10.00;;;;;32.82;29.77;98495.56;6259553;27;124701;-63
2021/06/12 12:06:57;;;;;;;;;11.00;10.00;;;;;32.65;29.43;98482.94;6258497;27;125916;-63
2021/06/12 12:10:00;;;;;;;;;12.00;10.00;;;;;32.47;28.22;98469.91;6258492;27;124423;-63
2021/06/12 12:13:04;;;;;;;;;11.00;10.50;;;;;32.37;27.68;98460.19;6259446;27;124821;-63
2021/06/12 12:16:19;;;;;;;;;9.40;9.00;;;;;32.62;27.13;98441.81;6258613;27;126095;-62
2021/06/12 12:19:23;;;;;;;;;11.00;10.00;;;;;32.95;27.05;98435.47;6259662;27;124707;-62
2021/06/12 12:22:36;;;;;;;;;12.00;10.50;;;;;33.25;27.65;98409.50;6259114;27;126095;-62
2021/06/12 12:25:39;;;;;;;;;10.80;9.80;;;;;33.28;26.08;98372.44;6259528;27;126100;-62
2021/06/12 12:28:51;;;;;;;;;10.20;10.20;;;;;33.79;25.45;98406.06;6258267;27;123080;-62
2021/06/12 12:31:56;;;;;;;;;9.00;9.00;;;;;34.03;25.72;98402.66;6259879;27;126561;-62
2021/06/12 12:35:11;;;;;;;;;11.00;11.00;;;;;34.06;25.65;98401.09;6258567;27;123734;-63
2021/06/12 12:38:17;;;;;;;;;10.00;10.00;;;;;34.07;25.25;98392.28;6246305;27;126097;-63
2021/06/12 12:41:19;;;;;;;;;10.00;10.00;;;;;34.21;24.76;98397.22;6257868;27;125369;-63
2021/06/12 12:44:23;;;;;;;;;8.60;8.60;;;;;34.27;24.42;98371.25;6257927;27;125901;-63
2021/06/12 12:47:28;;;;;;;;;10.20;10.00;;;;;34.26;24.51;98369.66;6259817;27;126538;-63
2021/06/12 12:50:32;;;;;;;;;9.00;9.00;;;;;34.39;23.86;98366.53;6259721;27;125941;-63
2021/06/12 12:53:39;;;;;;;;;10.00;9.00;;;;;34.38;23.94;98356.53;6259668;27;126025;-63
2021/06/12 12:56:43;;;;;;;;;8.00;8.00;;;;;34.21;22.90;98363.66;6257980;27;126794;-63
2021/06/12 12:59:46;;;;;;;;;8.00;8.00;;;;;34.01;23.69;98363.09;6260687;27;124474;-63
2021/06/12 13:02:53;;;;;;;;;9.00;9.00;;;;;34.03;24.27;98365.47;6263963;27;124977;-63
2021/06/12 13:05:57;;;;;;;;;8.00;8.00;;;;;34.03;24.25;98365.47;6263450;27;124586;-63
2021/06/12 13:09:08;;;;;;;;;8.20;8.00;;;;;34.24;24.49;98366.47;6261889;27;126506;-63
2021/06/12 13:12:14;;;;;;;;;9.00;8.20;;;;;34.07;24.32;98380.28;6257222;27;124660;-63
2021/06/12 13:15:19;;;;;;;;;9.00;8.00;;;;;33.92;25.04;98373.78;6257988;27;126919;-62
2021/06/12 13:18:21;;;;;;;;;9.40;9.40;;;;;33.92;25.09;98379.38;6263755;27;126351;-62
2021/06/12 13:21:27;;;;;;;;;10.00;9.00;;;;;33.90;24.86;98367.81;6263569;27;125140;-62
2021/06/12 13:24:29;;;;;;;;;8.00;7.00;;;;;33.94;24.56;98351.84;6263205;27;124585;-62
2021/06/12 13:27:38;;;;;;;;;9.00;9.00;;;;;33.91;24.47;98349.84;6263076;27;125159;-62
2021/06/12 13:30:42;;;;;;;;;9.40;8.00;;;;;33.88;23.28;98362.59;6263187;27;125913;-62
2021/06/12 13:33:45;;;;;;;;;7.00;7.00;;;;;33.74;22.88;98365.28;6262502;27;124789;-62
2021/06/12 13:36:53;;;;;;;;;7.00;7.00;;;;;33.61;23.21;98361.16;6264001;27;126750;-62
2021/06/12 13:39:59;;;;;;;;;7.00;7.00;;;;;33.34;23.64;98352.13;6250075;27;125965;-62
2021/06/12 13:43:13;;;;;;;;;8.00;8.00;;;;;33.20;24.18;98340.03;6262194;27;124661;-62
2021/06/12 13:46:17;;;;;;;;;9.40;8.80;;;;;33.05;24.97;98330.66;6262617;27;125999;-63
2021/06/12 13:49:22;;;;;;;;;10.00;9.00;;;;;32.98;25.55;98333.41;6261174;27;124667;-62
2021/06/12 13:52:26;;;;;;;;;10.50;9.50;;;;;32.94;26.26;98302.63;6260812;27;124789;-63
2021/06/12 13:55:29;;;;;;;;;7.00;7.00;;;;;32.97;25.40;98326.22;6262064;27;124948;-63
2021/06/12 13:58:33;;;;;;;;;9.80;8.80;;;;;32.93;25.44;98317.00;6261755;27;124176;-62
2021/06/12 14:01:36;;;;;;;;;10.00;10.00;;;;;32.89;25.91;98333.69;6262216;27;126007;-63
2021/06/12 14:04:39;;;;;;;;;11.00;10.60;;;;;32.85;26.29;98327.25;6261300;27;126324;-63
2021/06/12 14:07:43;;;;;;;;;12.00;12.00;;;;;32.71;27.17;98326.31;6261883;27;124998;-62